Gann Valley, South Dakota
Current Conditions -  °F | °C
As of 6:35 AM on Monday 26 Jan 2015 (Local Time) from K9V9 Reporting Station
Clear Clear  
Wind Chill: 30°   Ceiling: Unl
Heat Index: 38°   Visibility: 10mi
Dew Point: 33°   Wind: 14mph
Humidity: 81%   Direction: 280°W
Pressure: 29.89"   Gusts: NA
Location:  44.03°N, 98.99°W
Report Text: K9V9 261235Z AUTO 28012KT 10SM CLR 04/01 A2989 RMK AO2 T00350005
Loading
Personal Weather Stations






























Interactive Weather Map New forecast layout! Learn more

10-Day Weather Forecast

Advertisements
Track Severe Weather on mobile